createdAt,value
2022-10-13T00:01:11.317Z,9.90
2022-10-13T00:03:39.977Z,10.00
2022-10-13T00:06:09.431Z,9.90
2022-10-13T00:08:38.255Z,9.90
2022-10-13T00:11:11.874Z,10.00
2022-10-13T00:13:40.309Z,10.00
2022-10-13T00:16:10.487Z,10.00
2022-10-13T00:18:38.684Z,10.00
2022-10-13T00:21:08.337Z,10.00
2022-10-13T00:23:36.724Z,9.90
2022-10-13T00:26:07.394Z,10.00
2022-10-13T00:28:35.187Z,9.90
2022-10-13T00:31:03.223Z,9.90
2022-10-13T00:33:32.270Z,9.90
2022-10-13T00:36:00.066Z,9.90
2022-10-13T00:38:27.927Z,9.90
2022-10-13T00:40:57.411Z,9.90
2022-10-13T00:43:26.939Z,9.90
2022-10-13T00:45:55.515Z,9.90
2022-10-13T00:48:28.244Z,9.90
2022-10-13T00:50:58.918Z,9.80
2022-10-13T00:53:33.714Z,9.80
2022-10-13T00:56:02.118Z,9.80
2022-10-13T00:58:31.791Z,9.70
2022-10-13T01:01:00.168Z,9.70
2022-10-13T01:03:28.531Z,9.60
2022-10-13T01:06:01.116Z,9.70
2022-10-13T01:08:30.139Z,9.70
2022-10-13T01:11:10.030Z,9.70
2022-10-13T01:13:42.170Z,9.70
2022-10-13T01:16:15.661Z,9.60
2022-10-13T01:18:51.729Z,9.60
2022-10-13T01:21:29.864Z,9.60
2022-10-13T01:24:41.366Z,9.50
2022-10-13T01:27:34.669Z,9.50
2022-10-13T01:30:09.619Z,9.40
2022-10-13T01:32:51.500Z,9.30
2022-10-13T01:35:24.852Z,9.20
2022-10-13T01:38:03.089Z,9.10
2022-10-13T01:40:38.563Z,9.00
2022-10-13T01:43:12.148Z,9.00
2022-10-13T01:45:45.882Z,8.90
2022-10-13T01:48:15.553Z,8.80
2022-10-13T01:50:44.763Z,8.70
2022-10-13T01:53:14.740Z,8.70
2022-10-13T01:55:51.044Z,8.60
2022-10-13T01:58:18.824Z,8.50
2022-10-13T02:01:00.297Z,8.50
2022-10-13T02:03:39.550Z,8.40
2022-10-13T02:06:16.407Z,8.40
2022-10-13T02:08:51.289Z,8.30
2022-10-13T02:11:22.238Z,8.30
2022-10-13T02:13:59.386Z,8.30
2022-10-13T02:16:32.016Z,8.30
2022-10-13T02:19:00.121Z,8.30
2022-10-13T02:21:28.130Z,8.30
2022-10-13T02:23:56.078Z,8.30
2022-10-13T02:26:23.896Z,8.30
2022-10-13T02:28:51.728Z,8.40
2022-10-13T02:31:19.634Z,8.40
2022-10-13T02:33:48.747Z,8.40
2022-10-13T02:36:16.527Z,8.40
2022-10-13T02:38:46.378Z,8.50
2022-10-13T02:41:14.146Z,8.50
2022-10-13T02:43:41.911Z,8.50
2022-10-13T02:46:09.676Z,8.50
2022-10-13T02:48:37.447Z,8.50
2022-10-13T02:51:06.782Z,8.60
2022-10-13T02:53:34.582Z,8.50
2022-10-13T02:56:02.332Z,8.60
2022-10-13T02:58:32.578Z,8.60
2022-10-13T03:01:07.281Z,8.60
2022-10-13T03:03:35.357Z,8.60
2022-10-13T03:06:03.193Z,8.70
2022-10-13T03:08:33.217Z,8.70
2022-10-13T03:11:01.085Z,8.70
2022-10-13T03:13:29.058Z,8.70
2022-10-13T03:15:56.791Z,8.80
2022-10-13T03:18:24.497Z,8.80
2022-10-13T03:20:59.294Z,8.80
2022-10-13T03:23:27.300Z,8.70
2022-10-13T03:25:56.695Z,8.70
2022-10-13T03:28:24.574Z,8.70
2022-10-13T03:31:00.593Z,8.60
2022-10-13T03:33:28.323Z,8.60
2022-10-13T03:35:58.494Z,8.50
2022-10-13T03:38:26.229Z,8.50
2022-10-13T03:40:53.980Z,8.40
2022-10-13T03:43:23.064Z,8.40
2022-10-13T03:45:56.676Z,8.40
2022-10-13T03:48:24.550Z,8.40
2022-10-13T03:50:52.625Z,8.40
2022-10-13T03:53:20.590Z,8.40
2022-10-13T03:55:52.118Z,8.40
2022-10-13T03:58:20.693Z,8.40
2022-10-13T04:00:49.863Z,8.40
2022-10-13T04:03:17.969Z,8.50
2022-10-13T04:05:46.199Z,8.50
2022-10-13T04:08:14.137Z,8.50
2022-10-13T04:10:42.853Z,8.50
2022-10-13T04:13:10.632Z,8.60
2022-10-13T04:15:38.717Z,8.60
2022-10-13T04:18:09.251Z,8.60
2022-10-13T04:20:39.485Z,8.60
2022-10-13T04:23:08.256Z,8.70
2022-10-13T04:25:37.140Z,8.70
2022-10-13T04:28:05.742Z,8.70
2022-10-13T04:30:34.300Z,8.70
2022-10-13T04:33:02.333Z,8.70
2022-10-13T04:35:31.564Z,8.70
2022-10-13T04:37:59.334Z,8.70
2022-10-13T04:40:28.117Z,8.60
2022-10-13T04:42:55.853Z,8.60
2022-10-13T04:45:24.119Z,8.60
2022-10-13T04:47:52.190Z,8.60
2022-10-13T04:50:20.508Z,8.50
2022-10-13T04:52:49.585Z,8.50
2022-10-13T04:55:17.594Z,8.50
2022-10-13T04:57:45.507Z,8.50
2022-10-13T05:00:14.205Z,8.50
2022-10-13T05:02:41.914Z,8.50
2022-10-13T05:05:10.866Z,8.50
2022-10-13T05:07:44.131Z,8.60
2022-10-13T05:10:16.220Z,8.60
2022-10-13T05:12:46.984Z,8.60
2022-10-13T05:15:14.702Z,8.60
2022-10-13T05:17:49.103Z,8.70
2022-10-13T05:20:17.753Z,8.80
2022-10-13T05:22:45.813Z,8.80
2022-10-13T05:25:14.858Z,8.90
2022-10-13T05:27:46.309Z,8.90
2022-10-13T05:30:14.699Z,9.00
2022-10-13T05:32:42.703Z,9.00
2022-10-13T05:35:10.824Z,9.10
2022-10-13T05:37:38.620Z,9.20
2022-10-13T05:40:07.309Z,9.20
2022-10-13T05:42:36.704Z,9.20
2022-10-13T05:45:04.964Z,9.30
2022-10-13T05:47:32.670Z,9.30
2022-10-13T05:50:00.438Z,9.40
2022-10-13T05:52:32.459Z,9.40
2022-10-13T05:55:03.291Z,9.40
2022-10-13T05:57:34.092Z,9.40
2022-10-13T06:00:05.933Z,9.40
2022-10-13T06:02:38.711Z,9.40
2022-10-13T06:05:08.589Z,9.50
2022-10-13T06:07:36.318Z,9.50
2022-10-13T06:10:04.131Z,9.50
2022-10-13T06:12:31.850Z,9.60
2022-10-13T06:14:59.569Z,9.50
2022-10-13T06:17:28.651Z,9.60
2022-10-13T06:19:56.335Z,9.60
2022-10-13T06:22:24.066Z,9.60
2022-10-13T06:24:51.787Z,9.70
2022-10-13T06:27:19.594Z,9.70
2022-10-13T06:29:47.294Z,9.70
2022-10-13T06:32:15.000Z,9.70
2022-10-13T06:34:44.140Z,9.70
2022-10-13T06:37:11.854Z,9.70
2022-10-13T06:39:39.737Z,9.70
2022-10-13T06:42:07.518Z,9.80
2022-10-13T06:44:35.334Z,9.80
2022-10-13T06:47:03.534Z,9.80
2022-10-13T06:49:31.212Z,9.80
2022-10-13T06:52:00.312Z,9.90
2022-10-13T06:54:28.167Z,9.90
2022-10-13T06:56:55.931Z,10.00
2022-10-13T06:59:23.666Z,10.00
2022-10-13T07:01:51.821Z,10.10
2022-10-13T07:04:19.568Z,10.10
2022-10-13T07:06:47.280Z,10.20
2022-10-13T07:09:16.358Z,10.20
2022-10-13T07:11:45.904Z,10.30
2022-10-13T07:14:13.713Z,10.30
2022-10-13T07:16:42.157Z,10.40
2022-10-13T07:19:09.884Z,10.40
2022-10-13T07:21:37.653Z,10.50
2022-10-13T07:24:05.660Z,10.50
2022-10-13T07:26:34.873Z,10.50
2022-10-13T07:29:02.637Z,10.60
2022-10-13T07:31:30.368Z,10.70
2022-10-13T07:34:00.055Z,10.70
2022-10-13T07:36:27.831Z,10.70
2022-10-13T07:38:55.792Z,10.80
2022-10-13T07:41:23.504Z,10.90
2022-10-13T07:43:55.722Z,10.90
2022-10-13T07:46:23.499Z,10.90
2022-10-13T07:48:52.481Z,11.00
2022-10-13T07:51:20.400Z,11.00
2022-10-13T07:53:48.323Z,11.10
2022-10-13T07:56:17.316Z,11.10
2022-10-13T07:58:47.839Z,11.10
2022-10-13T08:01:18.091Z,11.20
2022-10-13T08:03:49.913Z,11.20
2022-10-13T08:06:18.723Z,11.20
2022-10-13T08:08:46.438Z,11.20
2022-10-13T08:11:16.940Z,11.20
2022-10-13T08:13:48.940Z,11.20
2022-10-13T08:16:18.237Z,11.20
2022-10-13T08:18:46.306Z,11.30
2022-10-13T08:21:57.572Z,11.30
2022-10-13T08:24:05.804Z,11.40
2022-10-13T08:26:33.594Z,11.40
2022-10-13T08:31:50.858Z,11.50
2022-10-13T08:34:18.739Z,11.50
2022-10-13T08:36:46.415Z,11.50
2022-10-13T08:39:14.489Z,11.50
2022-10-13T08:41:44.701Z,11.50
2022-10-13T08:47:15.862Z,11.70
2022-10-13T08:49:46.175Z,11.80
2022-10-13T08:52:19.630Z,11.80
2022-10-13T08:54:48.033Z,11.90
2022-10-13T08:57:15.862Z,11.90
2022-10-13T08:59:43.616Z,12.00
2022-10-13T09:02:17.109Z,12.10
2022-10-13T09:04:50.757Z,12.10
2022-10-13T09:07:23.057Z,12.20
2022-10-13T09:09:52.646Z,12.30
2022-10-13T09:12:24.232Z,12.30
2022-10-13T09:15:01.269Z,12.40
2022-10-13T09:17:31.275Z,12.40
2022-10-13T09:20:01.630Z,12.50
2022-10-13T09:22:31.510Z,12.60
2022-10-13T09:25:10.278Z,12.60
2022-10-13T09:27:45.882Z,12.70
2022-10-13T09:30:27.402Z,12.70
2022-10-13T09:33:14.871Z,12.80
2022-10-13T09:35:44.856Z,12.80
2022-10-13T09:38:15.770Z,12.90
2022-10-13T09:43:29.469Z,13.00
2022-10-13T09:45:57.889Z,13.10
2022-10-13T09:48:29.444Z,13.20
2022-10-13T09:50:58.236Z,13.30
2022-10-13T09:53:32.203Z,13.30
2022-10-13T09:56:16.987Z,13.40
2022-10-13T09:58:51.622Z,13.50
2022-10-13T10:01:25.034Z,13.60
2022-10-13T10:03:55.537Z,13.60
2022-10-13T10:06:26.935Z,13.60
2022-10-13T10:09:04.085Z,13.60
2022-10-13T10:11:38.361Z,13.50
2022-10-13T10:14:16.746Z,13.50
2022-10-13T10:16:48.230Z,13.40
2022-10-13T10:19:21.457Z,13.40
2022-10-13T10:21:55.306Z,13.40
2022-10-13T10:24:29.597Z,13.40
2022-10-13T10:27:01.317Z,13.40
2022-10-13T10:29:39.975Z,13.30
2022-10-13T10:32:28.246Z,13.30
2022-10-13T10:35:01.460Z,13.30
2022-10-13T10:37:55.341Z,13.40
2022-10-13T10:40:33.371Z,13.40
2022-10-13T10:43:32.829Z,13.40
2022-10-13T10:46:01.882Z,13.40
2022-10-13T10:48:33.854Z,13.50
2022-10-13T10:51:03.541Z,13.60
2022-10-13T10:53:38.731Z,13.60
2022-10-13T10:56:16.858Z,13.70
2022-10-13T10:58:52.356Z,13.80
2022-10-13T11:01:32.713Z,13.80
2022-10-13T11:04:33.255Z,13.90
2022-10-13T11:07:03.291Z,14.00
2022-10-13T11:10:01.929Z,14.10
2022-10-13T11:12:48.264Z,14.10
2022-10-13T11:15:24.608Z,14.20
2022-10-13T11:17:53.059Z,14.30
2022-10-13T11:20:57.860Z,14.30
2022-10-13T11:23:34.275Z,14.40
2022-10-13T11:26:32.256Z,14.40
2022-10-13T11:29:01.008Z,14.40
2022-10-13T11:31:47.518Z,14.50
2022-10-13T11:34:28.609Z,14.50
2022-10-13T11:36:58.311Z,14.60
2022-10-13T11:40:05.142Z,14.70
2022-10-13T11:43:09.524Z,14.80
2022-10-13T11:45:52.472Z,15.00
2022-10-13T11:48:45.539Z,15.10
2022-10-13T11:51:25.640Z,15.10
2022-10-13T11:54:00.555Z,15.10
2022-10-13T11:56:39.594Z,15.10
2022-10-13T11:59:21.237Z,15.00
2022-10-13T12:01:49.122Z,15.00
2022-10-13T12:04:16.939Z,15.00
2022-10-13T12:06:49.130Z,15.00
2022-10-13T12:09:21.056Z,14.90
2022-10-13T12:11:58.491Z,14.90
2022-10-13T12:14:32.111Z,14.90
2022-10-13T12:17:02.426Z,15.00
2022-10-13T12:19:31.493Z,15.00
2022-10-13T12:22:01.040Z,15.10
2022-10-13T12:24:31.010Z,15.30
2022-10-13T12:27:10.324Z,15.30
2022-10-13T12:29:41.590Z,15.40
2022-10-13T12:32:20.474Z,15.40
2022-10-13T12:34:48.368Z,15.50
2022-10-13T12:37:25.959Z,15.60
2022-10-13T12:39:54.132Z,15.60
2022-10-13T12:42:31.502Z,15.70
2022-10-13T12:45:00.681Z,15.80
2022-10-13T12:47:47.270Z,15.90
2022-10-13T12:50:38.164Z,15.90
2022-10-13T12:53:12.885Z,15.90
2022-10-13T12:55:58.979Z,15.80
2022-10-13T12:58:31.197Z,15.90
2022-10-13T13:01:18.916Z,15.80
2022-10-13T13:03:46.713Z,15.80
2022-10-13T13:06:33.652Z,15.80
2022-10-13T13:09:29.975Z,15.80
2022-10-13T13:12:22.308Z,15.80
2022-10-13T13:14:54.859Z,15.80
2022-10-13T13:17:56.731Z,15.80
2022-10-13T13:20:25.528Z,15.70
2022-10-13T13:22:53.400Z,15.70
2022-10-13T13:25:21.276Z,15.70
2022-10-13T13:27:49.130Z,15.60
2022-10-13T13:30:19.954Z,15.60
2022-10-13T13:32:47.983Z,15.50
2022-10-13T13:35:16.076Z,15.50
2022-10-13T13:37:47.988Z,15.50
2022-10-13T13:40:18.522Z,15.40
2022-10-13T13:42:46.452Z,15.40
2022-10-13T13:45:14.722Z,15.40
2022-10-13T13:47:44.297Z,15.40
2022-10-13T13:50:18.368Z,15.30
2022-10-13T13:52:46.567Z,15.30
2022-10-13T13:55:15.134Z,15.20
2022-10-13T13:57:43.207Z,15.20
2022-10-13T14:00:12.742Z,15.10
2022-10-13T14:02:41.108Z,15.10
2022-10-13T14:05:11.123Z,15.10
2022-10-13T14:07:39.157Z,15.10
2022-10-13T14:10:08.886Z,15.10
2022-10-13T14:12:36.982Z,15.10
2022-10-13T14:15:05.337Z,15.00
2022-10-13T14:17:33.093Z,15.00
2022-10-13T14:20:00.879Z,15.00
2022-10-13T14:22:30.070Z,15.00
2022-10-13T14:24:57.803Z,15.00
2022-10-13T14:27:25.573Z,15.10
2022-10-13T14:29:53.436Z,15.10
2022-10-13T14:32:21.466Z,15.20
2022-10-13T14:34:49.389Z,15.20
2022-10-13T14:37:20.895Z,15.30
2022-10-13T14:39:52.097Z,15.30
2022-10-13T14:42:19.888Z,15.30
2022-10-13T14:44:47.626Z,15.30
2022-10-13T14:47:15.352Z,15.30
2022-10-13T14:49:43.107Z,15.30
2022-10-13T14:52:10.916Z,15.30
2022-10-13T14:54:42.468Z,15.40
2022-10-13T14:57:15.979Z,15.30
2022-10-13T14:59:43.968Z,15.40
2022-10-13T15:02:12.885Z,15.40
2022-10-13T15:04:40.770Z,15.30
2022-10-13T15:07:08.583Z,15.30
2022-10-13T15:09:52.281Z,15.20
2022-10-13T15:12:22.918Z,15.20
2022-10-13T15:14:50.928Z,15.10
2022-10-13T15:17:18.747Z,15.10
2022-10-13T15:19:46.459Z,15.00
2022-10-13T15:22:14.335Z,15.00
2022-10-13T15:24:43.314Z,14.90
2022-10-13T15:27:11.045Z,14.90
2022-10-13T15:29:40.109Z,14.90
2022-10-13T15:32:10.085Z,14.90
2022-10-13T15:34:39.692Z,14.90
2022-10-13T15:37:07.464Z,14.80
2022-10-13T15:39:35.393Z,14.80
2022-10-13T15:42:05.612Z,14.80
2022-10-13T15:44:57.481Z,14.80
2022-10-13T15:47:22.913Z,14.80
2022-10-13T15:49:50.765Z,14.80
2022-10-13T15:52:18.761Z,14.80
2022-10-13T15:54:46.984Z,14.80
2022-10-13T15:57:15.251Z,14.80
2022-10-13T15:59:43.080Z,14.80
2022-10-13T16:02:11.339Z,14.80
2022-10-13T16:04:40.411Z,14.70
2022-10-13T16:07:08.116Z,14.70
2022-10-13T16:09:35.830Z,14.60
2022-10-13T16:12:03.554Z,14.60
2022-10-13T16:14:31.416Z,14.60
2022-10-13T16:16:59.239Z,14.60
2022-10-13T16:19:27.103Z,14.60
2022-10-13T16:21:56.275Z,14.50
2022-10-13T16:24:23.986Z,14.50
2022-10-13T16:26:51.713Z,14.50
2022-10-13T16:29:19.455Z,14.50
2022-10-13T16:31:47.219Z,14.40
2022-10-13T16:34:14.925Z,14.40
2022-10-13T16:36:42.636Z,14.40
2022-10-13T16:39:12.065Z,14.40
2022-10-13T16:41:39.889Z,14.40
2022-10-13T16:44:07.764Z,14.40
2022-10-13T16:46:35.674Z,14.30
2022-10-13T16:49:03.372Z,14.30
2022-10-13T16:51:34.267Z,14.30
2022-10-13T16:54:04.361Z,14.30
2022-10-13T16:56:36.922Z,14.30
2022-10-13T16:59:06.667Z,14.20
2022-10-13T17:01:36.294Z,14.20
2022-10-13T17:04:05.601Z,14.20
2022-10-13T17:06:33.830Z,14.20
2022-10-13T17:09:03.263Z,14.20
2022-10-13T17:11:33.299Z,14.20
2022-10-13T17:14:03.043Z,14.10
2022-10-13T17:16:31.284Z,14.10
2022-10-13T17:18:59.166Z,14.20
2022-10-13T17:21:27.107Z,14.20
2022-10-13T17:23:56.899Z,14.10
2022-10-13T17:26:24.879Z,14.10
2022-10-13T17:28:52.780Z,14.10
2022-10-13T17:31:24.002Z,14.10
2022-10-13T17:33:53.444Z,14.10
2022-10-13T17:36:24.000Z,14.10
2022-10-13T17:38:52.891Z,14.10
2022-10-13T17:41:21.178Z,14.10
2022-10-13T17:43:49.949Z,14.10
2022-10-13T17:46:36.205Z,14.10
2022-10-13T17:49:04.987Z,14.10
2022-10-13T17:51:32.752Z,14.10
2022-10-13T17:54:01.298Z,14.10
2022-10-13T17:56:29.805Z,14.10
2022-10-13T17:58:57.649Z,14.10
2022-10-13T18:01:28.509Z,14.10
2022-10-13T18:03:58.246Z,14.10
2022-10-13T18:06:26.704Z,14.00
2022-10-13T18:08:54.759Z,14.00
2022-10-13T18:11:25.239Z,14.00
2022-10-13T18:13:53.621Z,14.00
2022-10-13T18:16:24.134Z,14.00
2022-10-13T18:18:55.005Z,14.00
2022-10-13T18:21:26.617Z,14.00
2022-10-13T18:23:56.187Z,13.90
2022-10-13T18:26:24.287Z,13.90
2022-10-13T18:28:53.248Z,13.90
2022-10-13T18:31:22.897Z,13.90
2022-10-13T18:33:50.870Z,13.90
2022-10-13T18:36:23.279Z,13.80
2022-10-13T18:38:51.419Z,13.80
2022-10-13T18:41:21.348Z,13.80
2022-10-13T18:43:49.114Z,13.70
2022-10-13T18:46:16.882Z,13.70
2022-10-13T18:48:44.782Z,13.70
2022-10-13T18:51:14.131Z,13.70
2022-10-13T18:53:45.656Z,13.60
2022-10-13T18:56:15.522Z,13.60
2022-10-13T18:58:43.446Z,13.60
2022-10-13T19:01:13.355Z,13.60
2022-10-13T19:03:42.494Z,13.60
2022-10-13T19:06:12.702Z,13.60
2022-10-13T19:08:40.837Z,13.60
2022-10-13T19:11:13.839Z,13.60
2022-10-13T19:13:42.605Z,13.60
2022-10-13T19:16:14.985Z,13.60
2022-10-13T19:18:43.212Z,13.60
2022-10-13T19:21:11.637Z,13.60
2022-10-13T19:23:40.050Z,13.60
2022-10-13T19:26:13.936Z,13.60
2022-10-13T19:28:44.690Z,13.60
2022-10-13T19:31:14.550Z,13.70
2022-10-13T19:33:44.829Z,13.60
2022-10-13T19:36:20.842Z,13.70
2022-10-13T19:38:48.589Z,13.60
2022-10-13T19:41:16.436Z,13.70
2022-10-13T19:43:45.542Z,13.60
2022-10-13T19:46:13.425Z,13.60
2022-10-13T19:48:41.232Z,13.60
2022-10-13T19:51:11.189Z,13.70
2022-10-13T19:53:40.207Z,13.70
2022-10-13T19:56:09.061Z,13.70
2022-10-13T19:58:37.242Z,13.70
2022-10-13T20:01:08.288Z,13.70
2022-10-13T20:03:36.261Z,13.70
2022-10-13T20:06:05.197Z,13.70
2022-10-13T20:08:33.009Z,13.70
2022-10-13T20:11:06.172Z,13.70
2022-10-13T20:13:34.231Z,13.70
2022-10-13T20:16:07.811Z,13.70
2022-10-13T20:18:35.896Z,13.70
2022-10-13T20:21:04.608Z,13.70
2022-10-13T20:23:32.777Z,13.70
2022-10-13T20:26:03.725Z,13.70
2022-10-13T20:28:31.603Z,13.70
2022-10-13T20:31:02.172Z,13.70
2022-10-13T20:33:31.599Z,13.70
2022-10-13T20:36:00.023Z,13.70
2022-10-13T20:38:27.781Z,13.70
2022-10-13T20:40:55.548Z,13.70
2022-10-13T20:43:25.779Z,13.70
2022-10-13T20:46:00.434Z,13.70
2022-10-13T20:48:51.225Z,13.70
2022-10-13T20:51:22.166Z,13.70
2022-10-13T20:53:50.901Z,13.70
2022-10-13T20:56:21.189Z,13.70
2022-10-13T20:58:49.555Z,13.70
2022-10-13T21:01:18.457Z,13.70
2022-10-13T21:03:47.541Z,13.70
2022-10-13T21:06:15.702Z,13.70
2022-10-13T21:08:46.366Z,13.70
2022-10-13T21:11:16.558Z,13.70
2022-10-13T21:13:45.436Z,13.70
2022-10-13T21:16:14.642Z,13.60
2022-10-13T21:18:45.599Z,13.70
2022-10-13T21:21:14.787Z,13.70
2022-10-13T21:23:43.325Z,13.70
2022-10-13T21:26:11.202Z,13.70
2022-10-13T21:28:40.148Z,13.70
2022-10-13T21:31:09.724Z,13.70
2022-10-13T21:33:39.317Z,13.70
2022-10-13T21:36:07.989Z,13.70
2022-10-13T21:38:39.306Z,13.70
2022-10-13T21:41:08.315Z,13.70
2022-10-13T21:43:36.651Z,13.70
2022-10-13T21:46:10.863Z,13.70
2022-10-13T21:48:38.586Z,13.70
2022-10-13T21:51:13.950Z,13.70
2022-10-13T21:53:43.249Z,13.70
2022-10-13T21:56:12.376Z,13.70
2022-10-13T21:58:40.354Z,13.70
2022-10-13T22:01:08.532Z,13.70
2022-10-13T22:03:36.698Z,13.70
2022-10-13T22:06:12.298Z,13.70
2022-10-13T22:08:46.863Z,13.70
2022-10-13T22:11:15.938Z,13.70
2022-10-13T22:13:43.762Z,13.70
2022-10-13T22:16:15.160Z,13.70
2022-10-13T22:18:43.252Z,13.70
2022-10-13T22:21:13.840Z,13.70
2022-10-13T22:23:43.725Z,13.70
2022-10-13T22:26:13.868Z,13.70
2022-10-13T22:28:42.478Z,13.70
2022-10-13T22:31:12.142Z,13.70
2022-10-13T22:33:42.069Z,13.70
2022-10-13T22:36:11.661Z,13.70
2022-10-13T22:38:39.734Z,13.80
2022-10-13T22:41:09.265Z,13.70
2022-10-13T22:43:38.601Z,13.70
2022-10-13T22:46:06.739Z,13.70
2022-10-13T22:48:39.671Z,13.70
2022-10-13T22:51:08.985Z,13.70
2022-10-13T22:53:36.833Z,13.70
2022-10-13T22:56:07.334Z,13.70
2022-10-13T22:58:35.551Z,13.70
2022-10-13T23:01:09.126Z,13.70
2022-10-13T23:03:37.371Z,13.70
2022-10-13T23:06:06.668Z,13.70
2022-10-13T23:08:35.244Z,13.70
2022-10-13T23:11:02.983Z,13.70
2022-10-13T23:13:30.748Z,13.70
2022-10-13T23:16:02.241Z,13.70
2022-10-13T23:18:31.401Z,13.70
2022-10-13T23:20:59.255Z,13.70
2022-10-13T23:23:27.080Z,13.70
2022-10-13T23:25:54.849Z,13.70
2022-10-13T23:28:22.841Z,13.70
2022-10-13T23:30:50.718Z,13.70
2022-10-13T23:33:18.463Z,13.70
2022-10-13T23:35:54.864Z,13.70
2022-10-13T23:38:22.755Z,13.70
2022-10-13T23:40:50.552Z,13.70
2022-10-13T23:43:18.508Z,13.60
2022-10-13T23:45:46.647Z,13.70
2022-10-13T23:48:14.555Z,13.70
2022-10-13T23:50:42.577Z,13.60
2022-10-13T23:53:11.809Z,13.70
2022-10-13T23:55:40.097Z,13.60
2022-10-13T23:58:08.226Z,13.60
